SKBG/BGA METAR and TAF weather

Enter ICAO airport designator
Station Type Date Time Source
SKBG METAR 2022/01/25 04:00 UTC NOAA

SKBG 250400Z 32003KT 9999 SCT015 SCT270 20/20 Q1015 RMK A2998


Station Type Date Time Source
SKBG Decoded METAR 2022/01/25 04:00 UTC NOAA

Bucaramanga / Palonegro, Colombia (SKBG) 07-06N 073-12W
Jan 24, 2022 - 11:00 PM EST / 2022.01.25 0400 UTC
Wind: from the NW (320 degrees) at 3 MPH (3 KT):0
Visibility: greater than 7 mile(s):0
Sky conditions: partly cloudy
Temperature: 68 F (20 C)
Dew Point: 68 F (20 C)
Relative Humidity: 100%
Pressure (altimeter): 29.97 in. Hg (1015 hPa)
ob: SKBG 250400Z 32003KT 9999 SCT015 SCT270 20/20 Q1015 RMK A2998
cycle: 4

Station Type Date Time Source
SKBG TAF 2022/01/25 00:30 UTC NOAA

TAF SKBG 242230Z 2500/2524 VRB02KT 9999 SCT010
BECMG 2515/2517 32008KT SCT015
TEMPO 2518/2522 5000 RA SCT012TCU TX27/2518Z TN19/2510Z

Example: see airport list